createdAt,value
2018-09-16T00:01:01.583Z,1.87
2018-09-16T00:03:30.027Z,2.10
2018-09-16T00:05:58.053Z,1.50
2018-09-16T00:08:25.845Z,1.90
2018-09-16T00:13:28.785Z,1.50
2018-09-16T00:15:56.799Z,1.50
2018-09-16T00:18:24.810Z,1.57
2018-09-16T00:20:52.996Z,1.40
2018-09-16T00:23:21.105Z,1.67
2018-09-16T00:25:49.231Z,1.50
2018-09-16T00:28:17.101Z,1.70
2018-09-16T00:30:44.955Z,1.83
2018-09-16T00:33:12.760Z,1.40
2018-09-16T00:35:40.586Z,1.90
2018-09-16T00:38:08.614Z,1.50
2018-09-16T00:40:36.622Z,1.70
2018-09-16T00:43:04.496Z,1.63
2018-09-16T00:45:32.421Z,1.90
2018-09-16T00:48:00.670Z,1.40
2018-09-16T00:50:28.536Z,1.50
2018-09-16T00:52:56.434Z,1.57
2018-09-16T00:55:24.504Z,1.50
2018-09-16T00:57:52.400Z,1.30
2018-09-16T01:00:20.550Z,1.90
2018-09-16T01:02:49.619Z,1.67
2018-09-16T01:05:17.377Z,1.70
2018-09-16T01:07:45.618Z,1.30
2018-09-16T01:10:13.432Z,1.30
2018-09-16T01:12:41.374Z,1.80
2018-09-16T01:15:09.511Z,1.70
2018-09-16T01:17:37.390Z,1.63
2018-09-16T01:20:05.571Z,1.40
2018-09-16T01:22:33.616Z,1.50
2018-09-16T01:25:01.706Z,1.77
2018-09-16T01:27:29.738Z,1.40
2018-09-16T01:29:57.939Z,1.30
2018-09-16T01:32:25.974Z,1.63
2018-09-16T01:34:53.979Z,1.90
2018-09-16T01:37:27.403Z,1.60
2018-09-16T01:39:55.290Z,1.70
2018-09-16T01:42:23.057Z,1.53
2018-09-16T01:44:50.782Z,1.70
2018-09-16T01:47:18.619Z,1.50
2018-09-16T01:49:46.745Z,1.47
2018-09-16T01:52:14.749Z,1.67
2018-09-16T01:54:43.562Z,1.57
2018-09-16T01:57:11.684Z,1.50
2018-09-16T01:59:39.748Z,1.60
2018-09-16T02:02:07.818Z,1.73
2018-09-16T02:04:40.199Z,2.23
2018-09-16T02:07:08.204Z,1.90
2018-09-16T02:09:36.420Z,1.57
2018-09-16T02:12:06.529Z,2.00
2018-09-16T02:14:34.384Z,1.87
2018-09-16T02:17:04.089Z,1.90
2018-09-16T02:19:32.267Z,1.73
2018-09-16T02:22:00.136Z,1.87
2018-09-16T02:24:27.969Z,1.63
2018-09-16T02:26:56.270Z,1.50
2018-09-16T02:29:24.188Z,2.13
2018-09-16T02:31:52.396Z,1.60
2018-09-16T02:34:20.415Z,1.90
2018-09-16T02:36:48.358Z,2.03
2018-09-16T02:39:16.277Z,1.90
2018-09-16T02:41:44.053Z,1.83
2018-09-16T02:44:12.031Z,1.70
2018-09-16T02:46:39.827Z,1.67
2018-09-16T02:49:07.789Z,1.40
2018-09-16T02:51:36.586Z,1.80
2018-09-16T02:54:04.874Z,1.73
2018-09-16T02:56:32.737Z,1.83
2018-09-16T02:59:00.805Z,1.70
2018-09-16T03:01:28.821Z,1.83
2018-09-16T03:03:56.640Z,2.20
2018-09-16T03:06:30.616Z,1.73
2018-09-16T03:08:58.654Z,2.37
2018-09-16T03:11:26.627Z,1.97
2018-09-16T03:13:54.383Z,1.73
2018-09-16T03:16:22.502Z,1.70
2018-09-16T03:18:50.372Z,2.07
2018-09-16T03:21:18.130Z,1.80
2018-09-16T03:23:45.967Z,1.57
2018-09-16T03:26:13.726Z,1.93
2018-09-16T03:28:41.427Z,1.80
2018-09-16T03:31:09.108Z,2.00
2018-09-16T03:33:36.910Z,2.00
2018-09-16T03:36:05.536Z,1.83
2018-09-16T03:38:33.432Z,1.90
2018-09-16T03:41:01.077Z,2.13
2018-09-16T03:43:29.114Z,1.73
2018-09-16T03:45:57.323Z,1.83
2018-09-16T03:48:25.335Z,2.00
2018-09-16T03:50:53.543Z,2.70
2018-09-16T03:53:21.803Z,2.37
2018-09-16T03:55:49.773Z,2.30
2018-09-16T03:58:17.881Z,2.40
2018-09-16T04:00:45.686Z,2.10
2018-09-16T04:03:13.698Z,1.90
2018-09-16T04:05:41.857Z,1.80
2018-09-16T04:08:09.957Z,2.30
2018-09-16T04:10:38.061Z,2.07
2018-09-16T04:13:06.481Z,2.10
2018-09-16T04:15:34.540Z,2.27
2018-09-16T04:18:02.720Z,2.17
2018-09-16T04:20:30.868Z,1.93
2018-09-16T04:22:59.474Z,1.83
2018-09-16T04:25:27.513Z,2.30
2018-09-16T04:27:55.613Z,2.00
2018-09-16T04:30:23.592Z,2.10
2018-09-16T04:32:52.441Z,1.70
2018-09-16T04:35:20.323Z,1.77
2018-09-16T04:37:48.109Z,1.90
2018-09-16T04:40:16.134Z,1.80
2018-09-16T04:42:44.660Z,2.00
2018-09-16T04:45:12.973Z,1.80
2018-09-16T04:47:41.239Z,2.20
2018-09-16T04:50:09.381Z,2.60
2018-09-16T04:52:37.534Z,2.37
2018-09-16T04:55:06.105Z,2.10
2018-09-16T04:57:34.278Z,2.23
2018-09-16T05:00:02.445Z,1.93
2018-09-16T05:02:30.759Z,2.50
2018-09-16T05:04:59.603Z,2.50
2018-09-16T05:07:28.200Z,2.30
2018-09-16T05:10:00.325Z,2.37
2018-09-16T05:12:28.579Z,1.80
2018-09-16T05:14:59.797Z,2.13
2018-09-16T05:17:27.913Z,2.43
2018-09-16T05:19:56.066Z,2.40
2018-09-16T05:22:24.081Z,2.40
2018-09-16T05:24:51.786Z,2.10
2018-09-16T05:27:19.805Z,2.53
2018-09-16T05:29:47.556Z,2.43
2018-09-16T05:32:15.286Z,2.50
2018-09-16T05:34:43.314Z,2.50
2018-09-16T05:37:11.051Z,2.57
2018-09-16T05:39:39.030Z,2.70
2018-09-16T05:42:07.037Z,2.90
2018-09-16T05:44:35.114Z,2.27
2018-09-16T05:47:03.110Z,2.30
2018-09-16T05:49:31.372Z,2.60
2018-09-16T05:51:59.416Z,2.37
2018-09-16T05:54:27.470Z,2.60
2018-09-16T05:56:55.529Z,2.10
2018-09-16T05:59:23.696Z,2.47
2018-09-16T06:01:52.093Z,2.53
2018-09-16T06:04:20.201Z,2.53
2018-09-16T06:06:48.345Z,2.60
2018-09-16T06:09:16.829Z,2.20
2018-09-16T06:11:45.116Z,2.57
2018-09-16T06:14:13.438Z,2.70
2018-09-16T06:16:41.431Z,3.33
2018-09-16T06:19:09.609Z,2.80
2018-09-16T06:21:37.689Z,2.60
2018-09-16T06:24:05.593Z,2.70
2018-09-16T06:26:34.681Z,3.03
2018-09-16T06:29:03.546Z,2.30
2018-09-16T06:31:32.126Z,2.40
2018-09-16T06:33:59.985Z,2.80
2018-09-16T06:36:29.418Z,2.47
2018-09-16T06:38:57.448Z,2.30
2018-09-16T06:41:25.535Z,2.23
2018-09-16T06:43:53.721Z,2.63
2018-09-16T06:46:21.969Z,2.60
2018-09-16T06:48:49.927Z,2.80
2018-09-16T06:51:18.117Z,3.03
2018-09-16T06:53:46.343Z,2.67
2018-09-16T06:56:14.323Z,2.70
2018-09-16T06:58:42.296Z,3.00
2018-09-16T07:01:11.434Z,2.60
2018-09-16T07:03:39.697Z,2.80
2018-09-16T07:06:07.694Z,3.30
2018-09-16T07:08:35.451Z,2.97
2018-09-16T07:11:03.440Z,2.83
2018-09-16T07:13:32.306Z,2.97
2018-09-16T07:16:00.410Z,3.10
2018-09-16T07:18:28.297Z,2.40
2018-09-16T07:20:56.448Z,3.10
2018-09-16T07:23:24.864Z,3.10
2018-09-16T07:25:53.122Z,2.70
2018-09-16T07:28:20.938Z,2.97
2018-09-16T07:30:48.817Z,2.13
2018-09-16T07:33:17.442Z,2.67
2018-09-16T07:35:45.610Z,2.13
2018-09-16T07:38:13.810Z,2.30
2018-09-16T07:40:41.635Z,2.70
2018-09-16T07:43:09.771Z,2.20
2018-09-16T07:45:37.858Z,2.93
2018-09-16T07:48:05.784Z,2.10
2018-09-16T07:50:34.105Z,2.90
2018-09-16T07:53:02.095Z,3.60
2018-09-16T07:55:29.909Z,3.50
2018-09-16T07:57:57.934Z,2.87
2018-09-16T08:00:25.818Z,3.57
2018-09-16T08:02:54.564Z,3.03
2018-09-16T08:05:22.737Z,2.80
2018-09-16T08:07:50.927Z,3.07
2018-09-16T08:10:18.825Z,3.10
2018-09-16T08:12:46.637Z,2.50
2018-09-16T08:15:14.628Z,2.47
2018-09-16T08:17:42.472Z,2.10
2018-09-16T08:20:11.348Z,2.03
2018-09-16T08:22:39.404Z,1.90
2018-09-16T08:25:07.412Z,1.67
2018-09-16T08:27:35.627Z,1.83
2018-09-16T08:30:03.601Z,1.50
2018-09-16T08:32:32.598Z,1.67
2018-09-16T08:35:00.678Z,1.50
2018-09-16T08:37:28.745Z,2.20
2018-09-16T08:39:56.515Z,1.43
2018-09-16T08:42:24.747Z,1.60
2018-09-16T08:44:52.770Z,1.73
2018-09-16T08:47:20.690Z,1.53
2018-09-16T08:49:48.855Z,1.50
2018-09-16T08:52:17.052Z,1.20
2018-09-16T08:54:44.815Z,1.20
2018-09-16T08:57:12.987Z,1.83
2018-09-16T08:59:40.853Z,1.33
2018-09-16T09:02:09.715Z,1.40
2018-09-16T09:04:38.236Z,1.40
2018-09-16T09:07:06.497Z,1.17
2018-09-16T09:09:34.812Z,1.33
2018-09-16T09:12:02.921Z,0.90
2018-09-16T09:14:30.857Z,1.40
2018-09-16T09:16:58.991Z,1.40
2018-09-16T09:19:27.206Z,1.70
2018-09-16T09:21:55.499Z,1.37
2018-09-16T09:24:24.088Z,1.40
2018-09-16T09:26:53.084Z,1.00
2018-09-16T09:29:21.075Z,1.40
2018-09-16T09:31:49.194Z,1.30
2018-09-16T09:34:17.257Z,1.50
2018-09-16T09:36:46.246Z,1.33
2018-09-16T09:39:16.214Z,0.83
2018-09-16T09:41:44.089Z,1.10
2018-09-16T09:44:12.680Z,1.17
2018-09-16T09:46:40.731Z,0.90
2018-09-16T09:49:08.719Z,1.10
2018-09-16T09:51:37.113Z,0.73
2018-09-16T09:54:04.854Z,1.20
2018-09-16T09:56:32.853Z,1.00
2018-09-16T09:59:00.762Z,1.30
2018-09-16T10:01:28.420Z,1.23
2018-09-16T10:03:58.353Z,1.03
2018-09-16T10:06:27.023Z,1.13
2018-09-16T10:08:54.905Z,1.00
2018-09-16T10:11:23.469Z,1.13
2018-09-16T10:13:51.748Z,1.00
2018-09-16T10:16:19.838Z,1.17
2018-09-16T10:18:47.795Z,1.20
2018-09-16T10:21:15.897Z,0.97
2018-09-16T10:23:44.904Z,0.80
2018-09-16T10:26:12.883Z,1.00
2018-09-16T10:28:46.119Z,1.07
2018-09-16T10:33:49.085Z,1.30
2018-09-16T10:36:18.492Z,1.00
2018-09-16T10:38:46.500Z,1.10
2018-09-16T10:41:14.633Z,1.30
2018-09-16T10:43:42.530Z,0.80
2018-09-16T10:46:10.554Z,1.00
2018-09-16T10:48:39.790Z,0.83
2018-09-16T10:51:08.577Z,1.20
2018-09-16T10:53:37.786Z,1.03
2018-09-16T10:56:06.215Z,1.37
2018-09-16T10:58:34.631Z,0.90
2018-09-16T11:01:02.824Z,1.00
2018-09-16T11:03:31.176Z,1.00
2018-09-16T11:05:58.981Z,1.50
2018-09-16T11:08:26.809Z,0.90
2018-09-16T11:10:54.725Z,1.33
2018-09-16T11:13:22.552Z,1.10
2018-09-16T11:15:51.314Z,1.00
2018-09-16T11:18:19.813Z,1.10
2018-09-16T11:20:48.880Z,0.90
2018-09-16T11:23:16.717Z,1.07
2018-09-16T11:25:44.741Z,1.70
2018-09-16T11:28:12.797Z,1.00
2018-09-16T11:30:40.843Z,1.23
2018-09-16T11:33:09.477Z,1.30
2018-09-16T11:35:37.799Z,0.93
2018-09-16T11:38:07.117Z,1.00
2018-09-16T11:40:35.867Z,1.00
2018-09-16T11:43:04.203Z,0.90
2018-09-16T11:45:32.421Z,1.00
2018-09-16T11:48:00.350Z,1.10
2018-09-16T11:50:29.237Z,1.23
2018-09-16T11:52:57.630Z,1.40
2018-09-16T11:55:25.516Z,0.90
2018-09-16T11:57:53.397Z,0.90
2018-09-16T12:00:21.522Z,1.20
2018-09-16T12:02:50.160Z,1.00
2018-09-16T12:05:19.982Z,0.90
2018-09-16T12:07:48.120Z,1.00
2018-09-16T12:10:17.068Z,0.93
2018-09-16T12:12:45.640Z,1.17
2018-09-16T12:15:15.081Z,1.10
2018-09-16T12:17:43.212Z,1.00
2018-09-16T12:20:11.589Z,0.97
2018-09-16T12:22:40.007Z,0.77
2018-09-16T12:25:07.895Z,0.93
2018-09-16T12:27:36.015Z,1.40
2018-09-16T12:30:04.092Z,0.93
2018-09-16T12:32:32.955Z,1.20
2018-09-16T12:35:00.824Z,0.80
2018-09-16T12:37:28.998Z,1.30
2018-09-16T12:39:56.911Z,1.37
2018-09-16T12:42:24.847Z,1.00
2018-09-16T12:44:52.771Z,1.30
2018-09-16T12:47:22.567Z,1.10
2018-09-16T12:49:50.809Z,1.40
2018-09-16T12:52:18.919Z,1.30
2018-09-16T12:54:46.959Z,1.10
2018-09-16T12:57:14.966Z,1.30
2018-09-16T12:59:43.032Z,1.10
2018-09-16T13:02:11.157Z,1.27
2018-09-16T13:04:38.929Z,1.33
2018-09-16T13:07:09.673Z,1.00
2018-09-16T13:09:37.433Z,1.03
2018-09-16T13:12:05.310Z,1.60
2018-09-16T13:14:34.142Z,1.20
2018-09-16T13:17:01.918Z,0.93
2018-09-16T13:19:29.854Z,0.77
2018-09-16T13:21:57.971Z,0.80
2018-09-16T13:24:25.897Z,1.10
2018-09-16T13:26:53.870Z,1.10
2018-09-16T13:29:22.128Z,1.00
2018-09-16T13:31:50.332Z,1.10
2018-09-16T13:34:18.465Z,1.00
2018-09-16T13:36:46.269Z,0.97
2018-09-16T13:39:14.476Z,1.20
2018-09-16T13:41:42.277Z,0.90
2018-09-16T13:44:10.513Z,0.90
2018-09-16T13:46:38.610Z,1.00
2018-09-16T13:49:06.991Z,1.20
2018-09-16T13:51:35.857Z,1.10
2018-09-16T13:54:03.625Z,1.00
2018-09-16T13:56:31.697Z,0.90
2018-09-16T13:58:59.693Z,0.70
2018-09-16T14:01:27.595Z,1.03
2018-09-16T14:03:55.473Z,1.33
2018-09-16T14:06:23.259Z,1.00
2018-09-16T14:08:51.333Z,1.33
2018-09-16T14:11:19.581Z,1.00
2018-09-16T14:13:47.902Z,1.00
2018-09-16T14:16:17.155Z,0.90
2018-09-16T14:18:45.061Z,1.20
2018-09-16T14:21:13.294Z,0.97
2018-09-16T14:23:41.229Z,0.90
2018-09-16T14:26:09.253Z,1.10
2018-09-16T14:28:37.200Z,0.90
2018-09-16T14:31:05.704Z,1.13
2018-09-16T14:33:33.520Z,1.00
2018-09-16T14:36:01.406Z,1.10
2018-09-16T14:38:29.424Z,1.20
2018-09-16T14:40:57.915Z,1.03
2018-09-16T14:43:25.947Z,1.10
2018-09-16T14:45:54.171Z,0.90
2018-09-16T14:48:22.247Z,0.80
2018-09-16T14:50:50.739Z,1.03
2018-09-16T14:53:18.598Z,0.90
2018-09-16T14:55:46.973Z,1.10
2018-09-16T14:58:14.933Z,1.20
2018-09-16T15:00:44.058Z,1.20
2018-09-16T15:03:12.234Z,0.93
2018-09-16T15:05:41.060Z,1.20
2018-09-16T15:08:13.133Z,1.20
2018-09-16T15:10:42.230Z,0.80
2018-09-16T15:13:10.773Z,0.90
2018-09-16T15:15:38.829Z,0.97
2018-09-16T15:18:06.825Z,0.90
2018-09-16T15:20:34.936Z,0.90
2018-09-16T15:23:03.071Z,0.90
2018-09-16T15:25:32.260Z,0.80
2018-09-16T15:28:01.276Z,0.80
2018-09-16T15:30:29.163Z,0.90
2018-09-16T15:32:57.666Z,0.90
2018-09-16T15:35:25.668Z,1.13
2018-09-16T15:37:54.464Z,0.90
2018-09-16T15:40:22.428Z,1.10
2018-09-16T15:42:50.632Z,0.97
2018-09-16T15:45:18.656Z,1.00
2018-09-16T15:47:47.357Z,0.93
2018-09-16T15:50:15.724Z,0.90
2018-09-16T15:52:43.984Z,0.90
2018-09-16T15:55:12.158Z,1.57
2018-09-16T15:57:40.243Z,1.03
2018-09-16T16:00:08.611Z,1.30
2018-09-16T16:02:37.379Z,1.10
2018-09-16T16:05:05.494Z,0.90
2018-09-16T16:07:34.249Z,0.83
2018-09-16T16:10:03.858Z,1.03
2018-09-16T16:12:32.285Z,0.97
2018-09-16T16:15:00.306Z,0.70
2018-09-16T16:17:28.245Z,1.00
2018-09-16T16:19:56.374Z,1.00
2018-09-16T16:22:24.860Z,1.20
2018-09-16T16:24:53.372Z,1.30
2018-09-16T16:27:21.831Z,0.90
2018-09-16T16:29:50.013Z,1.10
2018-09-16T16:32:17.956Z,1.30
2018-09-16T16:34:45.911Z,0.93
2018-09-16T16:37:14.083Z,1.00
2018-09-16T16:39:42.404Z,1.10
2018-09-16T16:42:10.524Z,0.80
2018-09-16T16:44:38.486Z,1.03
2018-09-16T16:47:06.605Z,1.23
2018-09-16T16:49:34.677Z,1.10
2018-09-16T16:52:04.479Z,1.00
2018-09-16T16:54:33.194Z,1.13
2018-09-16T16:57:01.490Z,1.30
2018-09-16T16:59:29.436Z,0.90
2018-09-16T17:01:58.166Z,1.10
2018-09-16T17:04:26.409Z,1.07
2018-09-16T17:06:54.791Z,1.00
2018-09-16T17:09:23.631Z,0.70
2018-09-16T17:11:51.445Z,1.27
2018-09-16T17:14:20.009Z,1.23
2018-09-16T17:16:48.491Z,1.23
2018-09-16T17:19:17.565Z,1.13
2018-09-16T17:21:47.456Z,1.33
2018-09-16T17:24:15.921Z,1.00
2018-09-16T17:26:43.961Z,1.07
2018-09-16T17:29:12.958Z,1.03
2018-09-16T17:31:41.279Z,1.40
2018-09-16T17:34:09.167Z,1.37
2018-09-16T17:36:37.653Z,1.00
2018-09-16T17:39:08.715Z,1.20
2018-09-16T17:41:37.174Z,1.50
2018-09-16T17:44:06.202Z,2.43
2018-09-16T17:46:35.825Z,1.60
2018-09-16T17:49:05.033Z,1.53
2018-09-16T17:51:33.558Z,1.67
2018-09-16T17:54:01.450Z,1.70
2018-09-16T17:56:29.422Z,2.20
2018-09-16T17:58:58.093Z,1.90
2018-09-16T18:01:26.102Z,1.60
2018-09-16T18:03:54.033Z,1.40
2018-09-16T18:06:22.405Z,1.37
2018-09-16T18:08:50.727Z,1.87
2018-09-16T18:11:18.652Z,1.67
2018-09-16T18:13:46.951Z,1.70
2018-09-16T18:16:15.033Z,2.00
2018-09-16T18:18:42.860Z,1.90
2018-09-16T18:21:11.963Z,1.60
2018-09-16T18:23:40.204Z,2.00
2018-09-16T18:26:08.395Z,1.50
2018-09-16T18:28:36.515Z,2.20
2018-09-16T18:31:05.616Z,2.30
2018-09-16T18:33:33.621Z,1.80
2018-09-16T18:36:03.209Z,1.90
2018-09-16T18:38:32.475Z,2.20
2018-09-16T18:41:01.424Z,2.00
2018-09-16T18:43:29.975Z,2.37
2018-09-16T18:45:57.947Z,1.73
2018-09-16T18:48:27.231Z,1.83
2018-09-16T18:50:57.243Z,1.90
2018-09-16T18:53:25.137Z,2.07
2018-09-16T18:55:54.967Z,1.73
2018-09-16T18:58:23.127Z,2.43
2018-09-16T19:00:51.750Z,2.20
2018-09-16T19:03:20.773Z,2.23
2018-09-16T19:05:50.734Z,2.00
2018-09-16T19:08:19.106Z,2.10
2018-09-16T19:10:47.270Z,2.13
2018-09-16T19:13:15.816Z,2.33
2018-09-16T19:15:43.982Z,2.30
2018-09-16T19:18:13.687Z,2.30
2018-09-16T19:20:42.855Z,2.33
2018-09-16T19:23:11.625Z,1.97
2018-09-16T19:25:39.736Z,2.10
2018-09-16T19:28:08.347Z,1.80
2018-09-16T19:30:37.042Z,2.50
2018-09-16T19:33:05.259Z,2.23
2018-09-16T19:35:33.511Z,1.93
2018-09-16T19:38:01.488Z,2.40
2018-09-16T19:40:29.559Z,2.27
2018-09-16T19:42:59.237Z,1.87
2018-09-16T19:45:27.659Z,2.00
2018-09-16T19:47:56.055Z,1.90
2018-09-16T19:50:24.283Z,2.30
2018-09-16T19:52:52.386Z,1.80
2018-09-16T19:55:21.573Z,2.03
2018-09-16T19:57:50.080Z,2.33
2018-09-16T20:00:18.465Z,2.50
2018-09-16T20:02:47.409Z,2.33
2018-09-16T20:05:16.967Z,2.20
2018-09-16T20:07:45.407Z,2.43
2018-09-16T20:10:14.777Z,2.67
2018-09-16T20:12:46.376Z,2.43
2018-09-16T20:15:16.371Z,1.90
2018-09-16T20:17:45.205Z,2.27
2018-09-16T20:20:14.943Z,1.90
2018-09-16T20:22:47.451Z,2.07
2018-09-16T20:25:17.841Z,2.57
2018-09-16T20:27:46.643Z,1.97
2018-09-16T20:30:16.367Z,2.20
2018-09-16T20:32:45.034Z,2.07
2018-09-16T20:35:13.211Z,2.00
2018-09-16T20:37:41.846Z,1.70
2018-09-16T20:40:10.901Z,2.20
2018-09-16T20:42:40.193Z,1.80
2018-09-16T20:45:08.778Z,1.90
2018-09-16T20:47:37.067Z,1.83
2018-09-16T20:50:06.175Z,1.97
2018-09-16T20:52:35.033Z,2.33
2018-09-16T20:55:03.929Z,2.07
2018-09-16T20:57:32.430Z,1.70
2018-09-16T21:00:00.682Z,1.80
2018-09-16T21:02:28.847Z,1.67
2018-09-16T21:04:57.172Z,1.80
2018-09-16T21:07:25.294Z,1.80
2018-09-16T21:09:53.726Z,1.90
2018-09-16T21:12:22.340Z,1.70
2018-09-16T21:14:51.009Z,1.60
2018-09-16T21:17:18.934Z,1.47
2018-09-16T21:19:47.009Z,1.43
2018-09-16T21:22:15.490Z,1.63
2018-09-16T21:24:44.093Z,1.60
2018-09-16T21:27:12.434Z,1.47
2018-09-16T21:29:40.498Z,1.67
2018-09-16T21:32:09.271Z,1.70
2018-09-16T21:34:37.601Z,1.53
2018-09-16T21:37:06.113Z,1.57
2018-09-16T21:39:34.529Z,1.90
2018-09-16T21:42:02.526Z,1.70
2018-09-16T21:44:31.500Z,1.47
2018-09-16T21:47:00.368Z,1.40
2018-09-16T21:49:28.309Z,1.30
2018-09-16T21:51:57.115Z,1.73
2018-09-16T21:54:25.778Z,1.40
2018-09-16T21:56:54.145Z,1.10
2018-09-16T21:59:22.823Z,1.40
2018-09-16T22:01:51.094Z,1.73
2018-09-16T22:04:19.648Z,1.60
2018-09-16T22:06:48.060Z,1.43
2018-09-16T22:09:16.301Z,1.50
2018-09-16T22:11:44.336Z,1.40
2018-09-16T22:14:12.659Z,1.60
2018-09-16T22:16:40.641Z,1.80
2018-09-16T22:19:09.680Z,2.10
2018-09-16T22:21:37.873Z,1.60
2018-09-16T22:24:05.981Z,1.43
2018-09-16T22:26:35.298Z,1.80
2018-09-16T22:29:03.278Z,1.83
2018-09-16T22:31:31.682Z,1.43
2018-09-16T22:33:59.696Z,1.30
2018-09-16T22:36:27.788Z,1.50
2018-09-16T22:38:56.241Z,1.50
2018-09-16T22:41:24.155Z,1.50
2018-09-16T22:43:52.357Z,1.30
2018-09-16T22:46:20.689Z,1.60
2018-09-16T22:48:48.661Z,1.50
2018-09-16T22:51:16.597Z,1.80
2018-09-16T22:53:44.482Z,1.50
2018-09-16T22:56:12.695Z,1.53
2018-09-16T22:58:40.902Z,1.23
2018-09-16T23:01:09.734Z,1.30
2018-09-16T23:03:37.594Z,1.40
2018-09-16T23:06:05.748Z,1.40
2018-09-16T23:08:34.075Z,0.80
2018-09-16T23:11:02.209Z,1.70
2018-09-16T23:13:30.451Z,1.33
2018-09-16T23:15:58.477Z,1.53
2018-09-16T23:18:26.724Z,1.60
2018-09-16T23:20:54.888Z,1.40
2018-09-16T23:23:22.866Z,1.40
2018-09-16T23:25:51.103Z,1.30
2018-09-16T23:28:19.295Z,1.60
2018-09-16T23:30:47.497Z,1.30
2018-09-16T23:33:15.783Z,1.30
2018-09-16T23:35:43.867Z,1.40
2018-09-16T23:38:12.003Z,1.60
2018-09-16T23:40:39.914Z,1.63
2018-09-16T23:43:07.854Z,1.33
2018-09-16T23:45:35.785Z,1.60
2018-09-16T23:48:03.995Z,1.30
2018-09-16T23:50:32.430Z,1.30
2018-09-16T23:53:00.284Z,1.20
2018-09-16T23:55:28.461Z,1.30
2018-09-16T23:57:56.409Z,1.50
